• Join FlightAware (Why Join?)
  • Login
  • US Flag 
01:50AM EDT


 

Airport Tracker/Info


-or-


 

Live Flight TrackerFlight Track Log ✈ ASQ2555 ✈ 02-May-2013 ✈ KSHV - KDFW

Flight Track Log - Related Links

Times and Time Zones

All times are in EDT time to prevent confusion due to time zone crossing. See the ASQ2555 flight status page for this flight to view local times or setup timezone preferences in your user account.

Time Position Orientation Groundspeed Altitude Reporting Facility
EDT Latitude Longitude Course Direction KTS MPH feet Rate Location/Type
10:44AM 32.4725 -93.8650 308° West 154 177 1,900  Level Fort Worth Center
10:45AM 32.4681 -93.9342 266° West 234 269 4,300 2,100 Climbing Fort Worth Center
10:46AM 32.4644 -94.0353 268° West 261 300 6,700 2,100 Climbing Fort Worth Center
10:47AM 32.4606 -94.1192 267° West 277 319 9,000 1,980 Climbing Fort Worth Center
10:48AM 32.4528 -94.2278 265° West 298 343 10,700 1,440 Climbing Fort Worth Center
10:49AM 32.4469 -94.3289 266° West 329 379 11,900 1,500 Climbing Fort Worth Center
10:50AM 32.4397 -94.4547 266° West 349 402 13,700 1,440 Climbing Fort Worth Center
10:51AM 32.4336 -94.5606 266° West 355 409 14,800 1,320 Climbing Fort Worth Center
10:52AM 32.4197 -94.6867 263° West 368 423 16,400 1,380 Climbing Fort Worth Center
10:53AM 32.4078 -94.8100 263° West 368 423 17,600 1,080 Climbing Fort Worth Center
10:54AM 32.3872 -94.9311 259° West 379 436 18,600 900 Climbing Fort Worth Center
10:55AM 32.3917 -95.0517 273° West 391 450 19,400 660 Climbing Fort Worth Center
10:56AM 32.3897 -95.1794 269° West 391 450 20,000 300 Climbing Fort Worth Center
10:57AM 32.3900 -95.3147 270° West 403 464 20,000  Level Fort Worth Center
10:58AM 32.3881 -95.4575 269° West 418 481 20,000  Level Fort Worth Center
10:59AM 32.3922 -95.5978 272° West 425 489 20,000  Level Fort Worth Center
11:00AM 32.3881 -95.7431 268° West 438 504 20,000 -120 Level Fort Worth Center
11:01AM 32.3897 -95.8806 271° West 432 497 19,800 -1,200 Descending Fort Worth Center
11:02AM 32.3875 -96.0333 269° West 432 497 17,600 -2,100 Descending Fort Worth Center
11:03AM 32.3847 -96.1611 269° West 411 473 15,600 -2,280 Descending Fort Worth Center
11:04AM 32.3836 -96.2892 269° West 399 459 13,100 -2,280 Descending Fort Worth Center
11:05AM 32.3825 -96.4097 269° West 380 437 11,100 -1,380 Descending Fort Worth Center
11:06AM 32.4103 -96.4833 294° West 283 326 10,400 -1,500 Descending Fort Worth Center
11:07AM 32.4733 -96.5492 319° Northwest 270 311 8,100 -1,980 Descending Fort Worth Center
11:08AM 32.5239 -96.5978 321° Northwest 270 311 6,500 -1,560 Descending Fort Worth Center
11:09AM 32.5806 -96.6589 318° Northwest 264 304 5,000 -1,200 Descending Fort Worth Center
11:10AM 32.6311 -96.7078 321° Northwest 264 304 4,100 -480 Descending Fort Worth Center
11:11AM 32.7000 -96.7667 324° Northwest 254 292 4,000 -180 Descending Dallas / Fort Worth TRACON
11:12AM 32.7500 -96.8167 320° Northwest 252 290 3,800 -480 Descending Dallas / Fort Worth TRACON
11:13AM 32.8000 -96.8833 312° West 196 226 3,000 -660 Descending Dallas / Fort Worth TRACON
11:14AM 32.8333 -96.9167 320° Northwest 162 186 2,500 -660 Descending Dallas / Fort Worth TRACON
11:15AM 32.8500 -96.9500 301° West 127 146 1,800 -780 Descending Dallas / Fort Worth TRACON
11:16AM 32.8833 -96.9833 320° Northwest 127 146 1,100 3,120 Descending Dallas / Fort Worth TRACON
11:18AM 32.9225 -97.0372 311° West 130 150 11,000 5,160 Climbing Fort Worth Center